sensor_id;sensor_type;location;lat;lon;timestamp;temperature;humidity
5960;DHT22;3006;50.956;7.002;2022-09-25T00:01:23;15.30;99.90
5960;DHT22;3006;50.956;7.002;2022-09-25T00:03:52;15.30;99.90
5960;DHT22;3006;50.956;7.002;2022-09-25T00:06:22;15.30;99.90
5960;DHT22;3006;50.956;7.002;2022-09-25T00:08:51;15.30;99.90
5960;DHT22;3006;50.956;7.002;2022-09-25T00:11:23;15.30;99.90
5960;DHT22;3006;50.956;7.002;2022-09-25T00:13:53;15.30;99.90
5960;DHT22;3006;50.956;7.002;2022-09-25T00:16:23;15.30;99.90
5960;DHT22;3006;50.956;7.002;2022-09-25T00:18:54;15.30;99.90
5960;DHT22;3006;50.956;7.002;2022-09-25T00:21:39;15.30;99.90
5960;DHT22;3006;50.956;7.002;2022-09-25T00:24:09;15.40;99.90
5960;DHT22;3006;50.956;7.002;2022-09-25T00:26:39;15.30;99.90
5960;DHT22;3006;50.956;7.002;2022-09-25T00:29:10;15.30;99.90
5960;DHT22;3006;50.956;7.002;2022-09-25T00:31:40;15.30;99.90
5960;DHT22;3006;50.956;7.002;2022-09-25T00:34:10;15.20;99.90
5960;DHT22;3006;50.956;7.002;2022-09-25T00:36:38;15.20;99.90
5960;DHT22;3006;50.956;7.002;2022-09-25T00:39:06;15.20;99.90
5960;DHT22;3006;50.956;7.002;2022-09-25T00:41:34;15.20;99.90
5960;DHT22;3006;50.956;7.002;2022-09-25T00:44:42;15.20;99.90
5960;DHT22;3006;50.956;7.002;2022-09-25T00:47:04;15.20;99.90
5960;DHT22;3006;50.956;7.002;2022-09-25T00:49:34;15.20;99.90
5960;DHT22;3006;50.956;7.002;2022-09-25T00:52:06;15.10;99.90
5960;DHT22;3006;50.956;7.002;2022-09-25T00:54:37;15.10;99.90
5960;DHT22;3006;50.956;7.002;2022-09-25T00:57:12;15.10;99.90
5960;DHT22;3006;50.956;7.002;2022-09-25T00:59:45;15.10;99.90
5960;DHT22;3006;50.956;7.002;2022-09-25T01:02:20;15.10;99.90
5960;DHT22;3006;50.956;7.002;2022-09-25T01:04:54;15.10;99.90
5960;DHT22;3006;50.956;7.002;2022-09-25T01:07:23;15.10;99.90
5960;DHT22;3006;50.956;7.002;2022-09-25T01:09:51;15.10;99.90
5960;DHT22;3006;50.956;7.002;2022-09-25T01:12:22;15.10;99.90
5960;DHT22;3006;50.956;7.002;2022-09-25T01:14:50;15.00;99.90
5960;DHT22;3006;50.956;7.002;2022-09-25T01:17:23;15.00;99.90
5960;DHT22;3006;50.956;7.002;2022-09-25T01:20:02;15.00;99.90
5960;DHT22;3006;50.956;7.002;2022-09-25T01:22:49;15.00;99.90
5960;DHT22;3006;50.956;7.002;2022-09-25T01:25:28;15.00;99.90
5960;DHT22;3006;50.956;7.002;2022-09-25T01:28:13;15.00;99.90
5960;DHT22;3006;50.956;7.002;2022-09-25T01:30:49;14.90;99.90
5960;DHT22;3006;50.956;7.002;2022-09-25T01:33:23;15.00;99.90
5960;DHT22;3006;50.956;7.002;2022-09-25T01:35:58;14.90;99.90
5960;DHT22;3006;50.956;7.002;2022-09-25T01:38:32;14.90;99.90
5960;DHT22;3006;50.956;7.002;2022-09-25T01:41:05;14.90;99.90
5960;DHT22;3006;50.956;7.002;2022-09-25T01:43:37;14.90;99.90
5960;DHT22;3006;50.956;7.002;2022-09-25T01:46:12;14.90;99.90
5960;DHT22;3006;50.956;7.002;2022-09-25T01:48:42;14.90;99.90
5960;DHT22;3006;50.956;7.002;2022-09-25T01:51:16;14.90;99.90
5960;DHT22;3006;50.956;7.002;2022-09-25T01:53:48;14.90;99.90
5960;DHT22;3006;50.956;7.002;2022-09-25T01:56:24;14.90;99.90
5960;DHT22;3006;50.956;7.002;2022-09-25T01:59:02;14.90;99.90
5960;DHT22;3006;50.956;7.002;2022-09-25T02:01:37;14.90;99.90
5960;DHT22;3006;50.956;7.002;2022-09-25T02:04:10;14.90;99.90
5960;DHT22;3006;50.956;7.002;2022-09-25T02:06:41;14.90;99.90
5960;DHT22;3006;50.956;7.002;2022-09-25T02:09:13;15.00;99.90
5960;DHT22;3006;50.956;7.002;2022-09-25T02:11:49;14.90;99.90
5960;DHT22;3006;50.956;7.002;2022-09-25T02:14:22;14.90;99.90
5960;DHT22;3006;50.956;7.002;2022-09-25T02:16:54;14.90;99.90
5960;DHT22;3006;50.956;7.002;2022-09-25T02:19:23;14.90;99.90
5960;DHT22;3006;50.956;7.002;2022-09-25T02:22:11;14.90;99.90
5960;DHT22;3006;50.956;7.002;2022-09-25T02:24:46;14.80;99.90
5960;DHT22;3006;50.956;7.002;2022-09-25T02:27:15;14.80;99.90
5960;DHT22;3006;50.956;7.002;2022-09-25T02:29:45;14.80;99.90
5960;DHT22;3006;50.956;7.002;2022-09-25T02:32:17;14.80;99.90
5960;DHT22;3006;50.956;7.002;2022-09-25T02:34:46;14.80;99.90
5960;DHT22;3006;50.956;7.002;2022-09-25T02:37:15;14.80;99.90
5960;DHT22;3006;50.956;7.002;2022-09-25T02:39:47;14.80;99.90
5960;DHT22;3006;50.956;7.002;2022-09-25T02:42:27;14.80;99.90
5960;DHT22;3006;50.956;7.002;2022-09-25T02:45:06;14.80;99.90
5960;DHT22;3006;50.956;7.002;2022-09-25T02:47:46;14.80;99.90
5960;DHT22;3006;50.956;7.002;2022-09-25T02:50:22;14.80;99.90
5960;DHT22;3006;50.956;7.002;2022-09-25T02:52:56;14.80;99.90
5960;DHT22;3006;50.956;7.002;2022-09-25T02:55:33;14.80;99.90
5960;DHT22;3006;50.956;7.002;2022-09-25T02:58:08;14.80;99.90
5960;DHT22;3006;50.956;7.002;2022-09-25T03:00:43;14.80;99.90
5960;DHT22;3006;50.956;7.002;2022-09-25T03:03:15;14.80;99.90
5960;DHT22;3006;50.956;7.002;2022-09-25T03:05:45;14.80;99.90
5960;DHT22;3006;50.956;7.002;2022-09-25T03:08:15;14.80;99.90
5960;DHT22;3006;50.956;7.002;2022-09-25T03:11:01;14.70;99.90
5960;DHT22;3006;50.956;7.002;2022-09-25T03:13:31;14.80;99.90
5960;DHT22;3006;50.956;7.002;2022-09-25T03:16:01;14.80;99.90
5960;DHT22;3006;50.956;7.002;2022-09-25T03:18:31;14.70;99.90
5960;DHT22;3006;50.956;7.002;2022-09-25T03:20:59;14.70;99.90
5960;DHT22;3006;50.956;7.002;2022-09-25T03:23:30;14.70;99.90
5960;DHT22;3006;50.956;7.002;2022-09-25T03:25:58;14.70;99.90
5960;DHT22;3006;50.956;7.002;2022-09-25T03:28:27;14.70;99.90
5960;DHT22;3006;50.956;7.002;2022-09-25T03:30:56;14.70;99.90
5960;DHT22;3006;50.956;7.002;2022-09-25T03:33:26;14.70;99.90
5960;DHT22;3006;50.956;7.002;2022-09-25T03:36:04;14.70;99.90
5960;DHT22;3006;50.956;7.002;2022-09-25T03:38:33;14.70;99.90
5960;DHT22;3006;50.956;7.002;2022-09-25T03:41:01;14.70;99.90
5960;DHT22;3006;50.956;7.002;2022-09-25T03:43:29;14.70;99.90
5960;DHT22;3006;50.956;7.002;2022-09-25T03:45:58;14.70;99.90
5960;DHT22;3006;50.956;7.002;2022-09-25T03:48:26;14.70;99.90
5960;DHT22;3006;50.956;7.002;2022-09-25T03:50:54;14.70;99.90
5960;DHT22;3006;50.956;7.002;2022-09-25T03:53:24;14.70;99.90
5960;DHT22;3006;50.956;7.002;2022-09-25T03:55:52;14.70;99.90
5960;DHT22;3006;50.956;7.002;2022-09-25T03:58:20;14.70;99.90
5960;DHT22;3006;50.956;7.002;2022-09-25T04:00:48;14.70;99.90
5960;DHT22;3006;50.956;7.002;2022-09-25T04:03:16;14.80;99.90
5960;DHT22;3006;50.956;7.002;2022-09-25T04:05:45;14.70;99.90
5960;DHT22;3006;50.956;7.002;2022-09-25T04:08:13;14.60;99.90
5960;DHT22;3006;50.956;7.002;2022-09-25T04:10:43;14.60;99.90
5960;DHT22;3006;50.956;7.002;2022-09-25T04:13:11;14.60;99.90
5960;DHT22;3006;50.956;7.002;2022-09-25T04:15:40;14.60;99.90
5960;DHT22;3006;50.956;7.002;2022-09-25T04:18:08;14.60;99.90
5960;DHT22;3006;50.956;7.002;2022-09-25T04:20:36;14.60;99.90
5960;DHT22;3006;50.956;7.002;2022-09-25T04:23:05;14.60;99.90
5960;DHT22;3006;50.956;7.002;2022-09-25T04:25:33;14.60;99.90
5960;DHT22;3006;50.956;7.002;2022-09-25T04:28:02;14.60;99.90
5960;DHT22;3006;50.956;7.002;2022-09-25T04:30:32;14.60;99.90
5960;DHT22;3006;50.956;7.002;2022-09-25T04:33:01;14.50;99.90
5960;DHT22;3006;50.956;7.002;2022-09-25T04:35:47;14.50;99.90
5960;DHT22;3006;50.956;7.002;2022-09-25T04:38:15;14.50;99.90
5960;DHT22;3006;50.956;7.002;2022-09-25T04:40:43;14.50;99.90
5960;DHT22;3006;50.956;7.002;2022-09-25T04:43:13;14.50;99.90
5960;DHT22;3006;50.956;7.002;2022-09-25T04:45:41;14.40;99.90
5960;DHT22;3006;50.956;7.002;2022-09-25T04:48:10;14.50;99.90
5960;DHT22;3006;50.956;7.002;2022-09-25T04:50:37;14.40;99.90
5960;DHT22;3006;50.956;7.002;2022-09-25T04:53:05;14.40;99.90
5960;DHT22;3006;50.956;7.002;2022-09-25T04:55:33;14.40;99.90
5960;DHT22;3006;50.956;7.002;2022-09-25T04:58:04;14.40;99.90
5960;DHT22;3006;50.956;7.002;2022-09-25T05:00:34;14.40;99.90
5960;DHT22;3006;50.956;7.002;2022-09-25T05:03:02;14.40;99.90
5960;DHT22;3006;50.956;7.002;2022-09-25T05:05:31;14.40;99.90
5960;DHT22;3006;50.956;7.002;2022-09-25T05:08:00;14.40;99.90
5960;DHT22;3006;50.956;7.002;2022-09-25T05:10:30;14.40;99.90
5960;DHT22;3006;50.956;7.002;2022-09-25T05:13:00;14.40;99.90
5960;DHT22;3006;50.956;7.002;2022-09-25T05:15:30;14.40;99.90
5960;DHT22;3006;50.956;7.002;2022-09-25T05:18:00;14.40;99.90
5960;DHT22;3006;50.956;7.002;2022-09-25T05:20:29;14.40;99.90
5960;DHT22;3006;50.956;7.002;2022-09-25T05:22:57;14.40;99.90
5960;DHT22;3006;50.956;7.002;2022-09-25T05:25:27;14.40;99.90
5960;DHT22;3006;50.956;7.002;2022-09-25T05:27:58;14.40;99.90
5960;DHT22;3006;50.956;7.002;2022-09-25T05:30:27;14.40;99.90
5960;DHT22;3006;50.956;7.002;2022-09-25T05:32:56;14.40;99.90
5960;DHT22;3006;50.956;7.002;2022-09-25T05:35:27;14.40;99.90
5960;DHT22;3006;50.956;7.002;2022-09-25T05:37:56;14.40;99.90
5960;DHT22;3006;50.956;7.002;2022-09-25T05:40:24;14.40;99.90
5960;DHT22;3006;50.956;7.002;2022-09-25T05:42:52;14.40;99.90
5960;DHT22;3006;50.956;7.002;2022-09-25T05:45:22;14.40;99.90
5960;DHT22;3006;50.956;7.002;2022-09-25T05:47:59;14.40;99.90
5960;DHT22;3006;50.956;7.002;2022-09-25T05:50:29;14.40;99.90
5960;DHT22;3006;50.956;7.002;2022-09-25T05:53:00;14.40;99.90
5960;DHT22;3006;50.956;7.002;2022-09-25T05:55:28;14.30;99.90
5960;DHT22;3006;50.956;7.002;2022-09-25T05:58:00;14.30;99.90
5960;DHT22;3006;50.956;7.002;2022-09-25T06:00:29;14.20;99.90
5960;DHT22;3006;50.956;7.002;2022-09-25T06:02:58;14.10;99.90
5960;DHT22;3006;50.956;7.002;2022-09-25T06:05:30;14.10;99.90
5960;DHT22;3006;50.956;7.002;2022-09-25T06:07:58;14.10;99.90
5960;DHT22;3006;50.956;7.002;2022-09-25T06:10:26;14.10;99.90
5960;DHT22;3006;50.956;7.002;2022-09-25T06:12:56;14.10;99.90
5960;DHT22;3006;50.956;7.002;2022-09-25T06:15:25;14.10;99.90
5960;DHT22;3006;50.956;7.002;2022-09-25T06:17:54;14.10;99.90
5960;DHT22;3006;50.956;7.002;2022-09-25T06:20:22;14.10;99.90
5960;DHT22;3006;50.956;7.002;2022-09-25T06:22:52;14.00;99.90
5960;DHT22;3006;50.956;7.002;2022-09-25T06:25:21;14.00;99.90
5960;DHT22;3006;50.956;7.002;2022-09-25T06:27:51;14.00;99.90
5960;DHT22;3006;50.956;7.002;2022-09-25T06:30:20;14.00;99.90
5960;DHT22;3006;50.956;7.002;2022-09-25T06:32:54;14.00;99.90
5960;DHT22;3006;50.956;7.002;2022-09-25T06:35:23;14.00;99.90
5960;DHT22;3006;50.956;7.002;2022-09-25T06:37:55;14.00;99.90
5960;DHT22;3006;50.956;7.002;2022-09-25T06:40:24;14.00;99.90
5960;DHT22;3006;50.956;7.002;2022-09-25T06:42:56;14.00;99.90
5960;DHT22;3006;50.956;7.002;2022-09-25T06:45:26;14.00;99.90
5960;DHT22;3006;50.956;7.002;2022-09-25T06:47:59;13.90;99.90
5960;DHT22;3006;50.956;7.002;2022-09-25T06:50:30;13.90;99.90
5960;DHT22;3006;50.956;7.002;2022-09-25T06:53:01;14.00;99.90
5960;DHT22;3006;50.956;7.002;2022-09-25T06:55:29;13.90;99.90
5960;DHT22;3006;50.956;7.002;2022-09-25T06:57:58;14.00;99.90
5960;DHT22;3006;50.956;7.002;2022-09-25T07:00:26;14.00;99.90
5960;DHT22;3006;50.956;7.002;2022-09-25T07:02:56;14.00;99.90
5960;DHT22;3006;50.956;7.002;2022-09-25T07:05:42;14.00;99.90
5960;DHT22;3006;50.956;7.002;2022-09-25T07:08:12;13.90;99.90
5960;DHT22;3006;50.956;7.002;2022-09-25T07:10:46;13.90;99.90
5960;DHT22;3006;50.956;7.002;2022-09-25T07:13:15;13.80;99.90
5960;DHT22;3006;50.956;7.002;2022-09-25T07:15:50;13.80;99.90
5960;DHT22;3006;50.956;7.002;2022-09-25T07:18:18;13.70;99.90
5960;DHT22;3006;50.956;7.002;2022-09-25T07:20:46;13.80;99.90
5960;DHT22;3006;50.956;7.002;2022-09-25T07:23:16;13.80;99.90
5960;DHT22;3006;50.956;7.002;2022-09-25T07:25:45;13.70;99.90
5960;DHT22;3006;50.956;7.002;2022-09-25T07:28:14;13.70;99.90
5960;DHT22;3006;50.956;7.002;2022-09-25T07:30:45;13.70;99.90
5960;DHT22;3006;50.956;7.002;2022-09-25T07:33:14;13.70;99.90
5960;DHT22;3006;50.956;7.002;2022-09-25T07:35:42;13.70;99.90
5960;DHT22;3006;50.956;7.002;2022-09-25T07:38:10;13.70;99.90
5960;DHT22;3006;50.956;7.002;2022-09-25T07:40:39;13.70;99.90
5960;DHT22;3006;50.956;7.002;2022-09-25T07:43:07;13.60;99.90
5960;DHT22;3006;50.956;7.002;2022-09-25T07:45:35;13.60;99.90
5960;DHT22;3006;50.956;7.002;2022-09-25T07:48:04;13.70;99.90
5960;DHT22;3006;50.956;7.002;2022-09-25T07:50:33;13.80;99.90
5960;DHT22;3006;50.956;7.002;2022-09-25T07:53:01;13.80;99.90
5960;DHT22;3006;50.956;7.002;2022-09-25T07:55:29;13.90;99.90
5960;DHT22;3006;50.956;7.002;2022-09-25T07:57:58;13.90;99.90
5960;DHT22;3006;50.956;7.002;2022-09-25T08:00:26;13.90;99.90
5960;DHT22;3006;50.956;7.002;2022-09-25T08:02:55;14.00;99.90
5960;DHT22;3006;50.956;7.002;2022-09-25T08:05:24;14.10;99.90
5960;DHT22;3006;50.956;7.002;2022-09-25T08:07:52;14.20;99.90
5960;DHT22;3006;50.956;7.002;2022-09-25T08:10:20;14.10;99.90
5960;DHT22;3006;50.956;7.002;2022-09-25T08:12:48;14.10;99.90
5960;DHT22;3006;50.956;7.002;2022-09-25T08:15:18;14.00;99.90
5960;DHT22;3006;50.956;7.002;2022-09-25T08:17:46;14.10;99.90
5960;DHT22;3006;50.956;7.002;2022-09-25T08:20:14;14.20;99.90
5960;DHT22;3006;50.956;7.002;2022-09-25T08:22:42;14.20;99.90
5960;DHT22;3006;50.956;7.002;2022-09-25T08:25:10;14.20;99.90
5960;DHT22;3006;50.956;7.002;2022-09-25T08:27:38;14.20;99.90
5960;DHT22;3006;50.956;7.002;2022-09-25T08:30:08;14.20;99.90
5960;DHT22;3006;50.956;7.002;2022-09-25T08:32:38;14.30;99.90
5960;DHT22;3006;50.956;7.002;2022-09-25T08:35:07;14.30;99.90
5960;DHT22;3006;50.956;7.002;2022-09-25T08:37:39;14.30;99.90
5960;DHT22;3006;50.956;7.002;2022-09-25T08:40:15;14.30;99.90
5960;DHT22;3006;50.956;7.002;2022-09-25T08:42:46;14.40;99.90
5960;DHT22;3006;50.956;7.002;2022-09-25T08:45:25;14.50;99.90
5960;DHT22;3006;50.956;7.002;2022-09-25T08:48:18;14.60;99.90
5960;DHT22;3006;50.956;7.002;2022-09-25T08:51:05;14.70;99.90
5960;DHT22;3006;50.956;7.002;2022-09-25T08:53:35;14.90;99.90
5960;DHT22;3006;50.956;7.002;2022-09-25T08:56:05;15.10;99.90
5960;DHT22;3006;50.956;7.002;2022-09-25T08:58:50;15.30;99.90
5960;DHT22;3006;50.956;7.002;2022-09-25T09:01:21;15.50;99.90
5960;DHT22;3006;50.956;7.002;2022-09-25T09:04:01;15.60;99.90
5960;DHT22;3006;50.956;7.002;2022-09-25T09:06:32;15.70;99.90
5960;DHT22;3006;50.956;7.002;2022-09-25T09:09:05;15.80;99.90
5960;DHT22;3006;50.956;7.002;2022-09-25T09:11:38;15.80;99.90
5960;DHT22;3006;50.956;7.002;2022-09-25T09:14:11;15.80;99.90
5960;DHT22;3006;50.956;7.002;2022-09-25T09:16:43;16.00;99.90
5960;DHT22;3006;50.956;7.002;2022-09-25T09:19:13;16.10;99.90
5960;DHT22;3006;50.956;7.002;2022-09-25T09:21:45;16.20;99.90
5960;DHT22;3006;50.956;7.002;2022-09-25T09:24:15;16.30;99.90
5960;DHT22;3006;50.956;7.002;2022-09-25T09:26:56;16.20;99.90
5960;DHT22;3006;50.956;7.002;2022-09-25T09:29:39;16.10;99.90
5960;DHT22;3006;50.956;7.002;2022-09-25T09:32:24;15.90;99.90
5960;DHT22;3006;50.956;7.002;2022-09-25T09:35:02;15.70;99.90
5960;DHT22;3006;50.956;7.002;2022-09-25T09:37:44;15.40;99.90
5960;DHT22;3006;50.956;7.002;2022-09-25T09:40:43;15.30;99.90
5960;DHT22;3006;50.956;7.002;2022-09-25T09:43:30;15.30;99.90
5960;DHT22;3006;50.956;7.002;2022-09-25T09:46:08;15.30;99.90
5960;DHT22;3006;50.956;7.002;2022-09-25T09:48:44;15.40;99.90
5960;DHT22;3006;50.956;7.002;2022-09-25T09:51:20;15.50;99.90
5960;DHT22;3006;50.956;7.002;2022-09-25T09:53:52;15.50;99.90
5960;DHT22;3006;50.956;7.002;2022-09-25T09:56:24;15.60;99.90
5960;DHT22;3006;50.956;7.002;2022-09-25T09:58:57;15.80;99.90
5960;DHT22;3006;50.956;7.002;2022-09-25T10:01:28;16.00;99.90
5960;DHT22;3006;50.956;7.002;2022-09-25T10:04:16;16.10;99.90
5960;DHT22;3006;50.956;7.002;2022-09-25T10:06:48;16.30;99.90
5960;DHT22;3006;50.956;7.002;2022-09-25T10:09:17;16.40;99.90
5960;DHT22;3006;50.956;7.002;2022-09-25T10:11:50;16.50;99.90
5960;DHT22;3006;50.956;7.002;2022-09-25T10:14:20;16.40;99.90
5960;DHT22;3006;50.956;7.002;2022-09-25T10:16:55;16.50;99.90
5960;DHT22;3006;50.956;7.002;2022-09-25T10:19:25;16.20;99.90
5960;DHT22;3006;50.956;7.002;2022-09-25T10:22:01;16.10;99.90
5960;DHT22;3006;50.956;7.002;2022-09-25T10:24:50;16.00;99.90
5960;DHT22;3006;50.956;7.002;2022-09-25T10:27:25;15.90;99.90
5960;DHT22;3006;50.956;7.002;2022-09-25T10:30:12;16.00;99.90
5960;DHT22;3006;50.956;7.002;2022-09-25T10:32:47;16.10;99.90
5960;DHT22;3006;50.956;7.002;2022-09-25T10:35:26;16.20;99.90
5960;DHT22;3006;50.956;7.002;2022-09-25T10:37:59;16.20;99.90
5960;DHT22;3006;50.956;7.002;2022-09-25T10:40:29;16.30;99.90
5960;DHT22;3006;50.956;7.002;2022-09-25T10:43:16;16.40;99.90
5960;DHT22;3006;50.956;7.002;2022-09-25T10:45:46;16.40;99.90
5960;DHT22;3006;50.956;7.002;2022-09-25T10:48:27;16.50;99.90
5960;DHT22;3006;50.956;7.002;2022-09-25T10:51:15;16.60;99.90
5960;DHT22;3006;50.956;7.002;2022-09-25T10:53:46;16.70;99.90
5960;DHT22;3006;50.956;7.002;2022-09-25T10:56:20;16.80;99.90
5960;DHT22;3006;50.956;7.002;2022-09-25T10:58:51;16.80;99.90
5960;DHT22;3006;50.956;7.002;2022-09-25T11:01:29;16.60;99.90
5960;DHT22;3006;50.956;7.002;2022-09-25T11:03:59;16.50;99.90
5960;DHT22;3006;50.956;7.002;2022-09-25T11:06:29;16.30;99.90
5960;DHT22;3006;50.956;7.002;2022-09-25T11:09:12;16.20;99.90
5960;DHT22;3006;50.956;7.002;2022-09-25T11:11:41;16.20;99.90
5960;DHT22;3006;50.956;7.002;2022-09-25T11:14:19;16.30;99.90
5960;DHT22;3006;50.956;7.002;2022-09-25T11:16:50;16.30;99.90
5960;DHT22;3006;50.956;7.002;2022-09-25T11:19:25;16.40;99.90
5960;DHT22;3006;50.956;7.002;2022-09-25T11:22:04;16.50;99.90
5960;DHT22;3006;50.956;7.002;2022-09-25T11:24:43;16.50;99.90
5960;DHT22;3006;50.956;7.002;2022-09-25T11:27:20;16.50;99.90
5960;DHT22;3006;50.956;7.002;2022-09-25T11:29:59;16.50;99.90
5960;DHT22;3006;50.956;7.002;2022-09-25T11:32:35;16.50;99.90
5960;DHT22;3006;50.956;7.002;2022-09-25T11:35:38;16.50;99.90
5960;DHT22;3006;50.956;7.002;2022-09-25T11:38:15;16.60;99.90
5960;DHT22;3006;50.956;7.002;2022-09-25T11:41:14;16.70;99.90
5960;DHT22;3006;50.956;7.002;2022-09-25T11:43:54;16.80;99.90
5960;DHT22;3006;50.956;7.002;2022-09-25T11:46:31;16.80;99.90
5960;DHT22;3006;50.956;7.002;2022-09-25T11:49:11;16.80;99.90
5960;DHT22;3006;50.956;7.002;2022-09-25T11:52:10;16.70;99.90
5960;DHT22;3006;50.956;7.002;2022-09-25T11:54:57;16.70;99.90
5960;DHT22;3006;50.956;7.002;2022-09-25T11:57:37;16.60;99.90
5960;DHT22;3006;50.956;7.002;2022-09-25T12:00:14;16.60;99.90
5960;DHT22;3006;50.956;7.002;2022-09-25T12:03:02;16.50;99.90
5960;DHT22;3006;50.956;7.002;2022-09-25T12:08:51;16.60;99.50
5960;DHT22;3006;50.956;7.002;2022-09-25T12:11:25;16.80;99.00
5960;DHT22;3006;50.956;7.002;2022-09-25T12:14:02;17.00;98.80
5960;DHT22;3006;50.956;7.002;2022-09-25T12:16:37;17.00;99.00
5960;DHT22;3006;50.956;7.002;2022-09-25T12:19:22;17.00;99.30
5960;DHT22;3006;50.956;7.002;2022-09-25T12:22:01;16.90;98.50
5960;DHT22;3006;50.956;7.002;2022-09-25T12:24:43;16.90;98.20
5960;DHT22;3006;50.956;7.002;2022-09-25T12:27:18;16.90;97.90
5960;DHT22;3006;50.956;7.002;2022-09-25T12:30:03;16.70;97.80
5960;DHT22;3006;50.956;7.002;2022-09-25T12:32:55;16.70;98.10
5960;DHT22;3006;50.956;7.002;2022-09-25T12:35:34;16.90;99.10
5960;DHT22;3006;50.956;7.002;2022-09-25T12:38:09;17.10;98.90
5960;DHT22;3006;50.956;7.002;2022-09-25T12:40:42;17.30;97.90
5960;DHT22;3006;50.956;7.002;2022-09-25T12:43:15;17.50;98.10
5960;DHT22;3006;50.956;7.002;2022-09-25T12:45:48;17.40;97.50
5960;DHT22;3006;50.956;7.002;2022-09-25T12:48:29;17.30;98.20
5960;DHT22;3006;50.956;7.002;2022-09-25T12:51:01;17.10;98.50
5960;DHT22;3006;50.956;7.002;2022-09-25T12:53:35;17.30;98.70
5960;DHT22;3006;50.956;7.002;2022-09-25T12:56:10;17.40;97.70
5960;DHT22;3006;50.956;7.002;2022-09-25T12:59:05;17.60;97.60
5960;DHT22;3006;50.956;7.002;2022-09-25T13:01:42;18.00;97.60
5960;DHT22;3006;50.956;7.002;2022-09-25T13:04:26;18.50;96.80
5960;DHT22;3006;50.956;7.002;2022-09-25T13:07:08;18.70;96.20
5960;DHT22;3006;50.956;7.002;2022-09-25T13:09:41;18.70;96.00
5960;DHT22;3006;50.956;7.002;2022-09-25T13:12:20;18.50;95.90
5960;DHT22;3006;50.956;7.002;2022-09-25T13:14:55;18.00;96.30
5960;DHT22;3006;50.956;7.002;2022-09-25T13:17:25;17.90;96.90
5960;DHT22;3006;50.956;7.002;2022-09-25T13:23:04;18.40;97.00
5960;DHT22;3006;50.956;7.002;2022-09-25T13:25:41;18.60;96.50
5960;DHT22;3006;50.956;7.002;2022-09-25T13:28:18;18.70;96.10
5960;DHT22;3006;50.956;7.002;2022-09-25T13:31:04;18.80;95.30
5960;DHT22;3006;50.956;7.002;2022-09-25T13:33:52;19.00;94.40
5960;DHT22;3006;50.956;7.002;2022-09-25T13:36:32;19.10;94.90
5960;DHT22;3006;50.956;7.002;2022-09-25T13:39:03;19.20;95.20
5960;DHT22;3006;50.956;7.002;2022-09-25T13:41:52;19.30;95.10
5960;DHT22;3006;50.956;7.002;2022-09-25T13:45:00;19.30;94.80
5960;DHT22;3006;50.956;7.002;2022-09-25T13:48:07;19.40;94.00
5960;DHT22;3006;50.956;7.002;2022-09-25T13:50:39;19.60;94.10
5960;DHT22;3006;50.956;7.002;2022-09-25T13:53:24;19.70;93.00
5960;DHT22;3006;50.956;7.002;2022-09-25T13:56:14;19.90;92.80
5960;DHT22;3006;50.956;7.002;2022-09-25T13:59:02;20.10;92.60
5960;DHT22;3006;50.956;7.002;2022-09-25T14:01:35;20.50;92.10
5960;DHT22;3006;50.956;7.002;2022-09-25T14:04:09;20.60;89.70
5960;DHT22;3006;50.956;7.002;2022-09-25T14:06:40;20.90;85.90
5960;DHT22;3006;50.956;7.002;2022-09-25T14:09:10;21.20;84.00
5960;DHT22;3006;50.956;7.002;2022-09-25T14:11:42;21.30;84.30
5960;DHT22;3006;50.956;7.002;2022-09-25T14:14:17;22.30;82.90
5960;DHT22;3006;50.956;7.002;2022-09-25T14:16:53;23.50;80.60
5960;DHT22;3006;50.956;7.002;2022-09-25T14:19:26;24.80;77.90
5960;DHT22;3006;50.956;7.002;2022-09-25T14:21:58;25.20;75.40
5960;DHT22;3006;50.956;7.002;2022-09-25T14:24:28;24.50;74.80
5960;DHT22;3006;50.956;7.002;2022-09-25T14:26:58;23.70;76.60
5960;DHT22;3006;50.956;7.002;2022-09-25T14:29:30;22.50;79.10
5960;DHT22;3006;50.956;7.002;2022-09-25T14:32:10;21.40;82.10
5960;DHT22;3006;50.956;7.002;2022-09-25T14:35:38;20.60;84.70
5960;DHT22;3006;50.956;7.002;2022-09-25T14:41:23;19.30;90.40
5960;DHT22;3006;50.956;7.002;2022-09-25T14:44:05;19.00;91.40
5960;DHT22;3006;50.956;7.002;2022-09-25T14:46:41;19.50;90.00
5960;DHT22;3006;50.956;7.002;2022-09-25T14:49:23;19.90;87.70
5960;DHT22;3006;50.956;7.002;2022-09-25T14:51:54;19.80;86.70
5960;DHT22;3006;50.956;7.002;2022-09-25T14:54:29;19.40;83.10
5960;DHT22;3006;50.956;7.002;2022-09-25T14:56:58;19.10;84.50
5960;DHT22;3006;50.956;7.002;2022-09-25T14:59:35;18.90;84.90
5960;DHT22;3006;50.956;7.002;2022-09-25T15:02:13;18.80;85.10
5960;DHT22;3006;50.956;7.002;2022-09-25T15:04:42;18.60;86.20
5960;DHT22;3006;50.956;7.002;2022-09-25T15:07:15;18.50;87.50
5960;DHT22;3006;50.956;7.002;2022-09-25T15:09:45;18.40;88.00
5960;DHT22;3006;50.956;7.002;2022-09-25T15:12:17;18.30;87.90
5960;DHT22;3006;50.956;7.002;2022-09-25T15:15:04;18.30;88.50
5960;DHT22;3006;50.956;7.002;2022-09-25T15:17:37;18.20;89.00
5960;DHT22;3006;50.956;7.002;2022-09-25T15:20:14;18.10;89.70
5960;DHT22;3006;50.956;7.002;2022-09-25T15:22:49;18.00;89.90
5960;DHT22;3006;50.956;7.002;2022-09-25T15:25:22;17.90;90.20
5960;DHT22;3006;50.956;7.002;2022-09-25T15:27:51;17.90;90.10
5960;DHT22;3006;50.956;7.002;2022-09-25T15:30:20;17.80;90.40
5960;DHT22;3006;50.956;7.002;2022-09-25T15:32:50;17.80;90.70
5960;DHT22;3006;50.956;7.002;2022-09-25T15:35:27;17.80;91.20
5960;DHT22;3006;50.956;7.002;2022-09-25T15:38:06;17.80;91.10
5960;DHT22;3006;50.956;7.002;2022-09-25T15:40:36;17.90;91.40
5960;DHT22;3006;50.956;7.002;2022-09-25T15:43:10;17.90;91.70
5960;DHT22;3006;50.956;7.002;2022-09-25T15:45:42;17.80;91.60
5960;DHT22;3006;50.956;7.002;2022-09-25T15:48:24;17.80;91.90
5960;DHT22;3006;50.956;7.002;2022-09-25T15:50:54;17.70;91.90
5960;DHT22;3006;50.956;7.002;2022-09-25T15:53:26;17.80;92.20
5960;DHT22;3006;50.956;7.002;2022-09-25T15:56:14;17.70;92.40
5960;DHT22;3006;50.956;7.002;2022-09-25T15:58:45;17.70;92.60
5960;DHT22;3006;50.956;7.002;2022-09-25T16:01:16;17.70;92.40
5960;DHT22;3006;50.956;7.002;2022-09-25T16:04:05;17.70;92.40
5960;DHT22;3006;50.956;7.002;2022-09-25T16:06:51;17.70;92.70
5960;DHT22;3006;50.956;7.002;2022-09-25T16:09:23;17.70;93.00
5960;DHT22;3006;50.956;7.002;2022-09-25T16:14:58;17.70;92.60
5960;DHT22;3006;50.956;7.002;2022-09-25T16:17:34;17.70;93.30
5960;DHT22;3006;50.956;7.002;2022-09-25T16:20:06;17.70;92.80
5960;DHT22;3006;50.956;7.002;2022-09-25T16:22:38;17.70;92.80
5960;DHT22;3006;50.956;7.002;2022-09-25T16:25:17;17.60;92.90
5960;DHT22;3006;50.956;7.002;2022-09-25T16:27:47;17.60;93.10
5960;DHT22;3006;50.956;7.002;2022-09-25T16:30:18;17.50;93.00
5960;DHT22;3006;50.956;7.002;2022-09-25T16:32:50;17.50;93.20
5960;DHT22;3006;50.956;7.002;2022-09-25T16:35:30;17.50;93.00
5960;DHT22;3006;50.956;7.002;2022-09-25T16:38:27;17.40;93.20
5960;DHT22;3006;50.956;7.002;2022-09-25T16:41:03;17.20;93.20
5960;DHT22;3006;50.956;7.002;2022-09-25T16:43:32;17.20;93.70
5960;DHT22;3006;50.956;7.002;2022-09-25T16:46:11;17.20;94.10
5960;DHT22;3006;50.956;7.002;2022-09-25T16:48:41;17.10;94.50
5960;DHT22;3006;50.956;7.002;2022-09-25T16:51:15;17.10;94.90
5960;DHT22;3006;50.956;7.002;2022-09-25T16:53:45;17.10;95.40
5960;DHT22;3006;50.956;7.002;2022-09-25T16:56:19;17.00;95.70
5960;DHT22;3006;50.956;7.002;2022-09-25T16:58:48;16.90;95.90